Acme, MI

9:55 PM EDT on June 02, 2015 (GMT -0400)
Vally Estates | | Change Station
CLOSE
Current Station
Personal Weather Station
Location: Williamsburg, MI
Elevation: 662 ft
Nearby Weather Stations

Elev 662 ft 44.80 °N, 85.50 °W | Updated 5 seconds ago

Mostly Cloudy
Mostly Cloudy
50.2 °F
Feels Like 50.2 °F
N
0.0
Wind Variable Wind from NE
Gusts 0.0 mph

Today
High -- | Low -- °F
--% Chance of Precip.
Yesterday
High -- | Low -- °F
Precip. -- in
5:58 AM 9:21 PM
Full, 100% visible
Pressure 30.13 in
Visibility 10.0 miles
Clouds Mostly Cloudy 25000 ft
Dew Point 40 °F
Humidity 68%
Rainfall 0.00 in
Snow Depth Not available.
UV 0 out of 12
Pollen 7.60 out of 12
Air Quality Not available.
Flu Activity Sporadic
METAR KTVC 030053Z 03004KT 10SM BKN250 13/05 A3012 RMK AO2 SLP203 T01280050

More Conditions Fewer Conditions

Pressure 30.13 in
Visibility 10.0 miles
Clouds Mostly Cloudy 25000 ft
Dew Point 40 °F
Humidity 68%
Rainfall 0.00 in
Snow Depth Not available.
UV 0 out of 12
Pollen 7.60 out of 12
Air Quality Not available.
Flu Activity Sporadic
METAR KTVC 030053Z 03004KT 10SM BKN250 13/05 A3012 RMK AO2 SLP203 T01280050

More Conditions Fewer Conditions

Nowcast | as of 9:00 PM EDT on June 2, 2015

At 10 PM...mostly clear. Temperature 54. Light winds. At 12 am...mostly clear. Temperature 52. Light winds. At 2 am...mostly clear. Temperature 49. Light winds. At 4 am...mostly clear. Temperature 47. Light winds.

×

10-Day Weather Forecast

×

Almanac

Astronomy

Jun. 02, 2015 Rise Set
Actual Time
Civil Twilight
Nautical Twilight
Astronomical Twilight
Moon
Length of Visible Light
Length of Day
Tomorrow will be .
, % of the Moon is Illuminated

Today's Extremes

State Highs State Lows

Community

WunderPhotos

Upload Photos

1,826,097 photos uploaded!

WunderBlogs® & News

Nearby

Air Quality

  Air Quality AQ Index Pollutant
Not available.

Snow Depth

Station Depth Elevation

Earthquake Activity

City Distance Mag. Time & Date
Minimum magnitude displayed is 2.5.

Coastal Water Temperatures

Place Temperature

Stations

Nearby Weather Stations

Station Location Temp. Windchill Dew Point Humidity Wind Precip. Elev Updated Type